Daleville, Alabama
Current Conditions -  °F | °C
As of 10:58 AM on Thursday 23 Oct 2014 (Local Time) from KOZR Reporting Station
Clear Clear  
Wind Chill: 66°   Ceiling: Unl
Heat Index: 66°   Visibility: 10mi
Dew Point: 46°   Wind: 7mph
Humidity: 48%   Direction: 60°ENE
Pressure: 30.11"   Gusts: NA
Location:  31.31°N, 85.71°W
Report Text: KOZR 231558Z AUTO 06006KT 10SM CLR 19/08 A3011 RMK AO2 DZB1524E1533B1548 SLP198 P0000 T01910077
Loading
Personal Weather Stations






























Interactive Weather Map New forecast layout! Learn more

10-Day Weather Forecast

Advertisements
Track Severe Weather on mobile